Time;durP1;ratioP1;P1;durP2;ratioP2;P2;SDS_P1;SDS_P2;PMS_P1;PMS_P2;Temp;Humidity;BMP_temperature;BMP_pressure;BME280_temperature;BME280_humidity;BME280_pressure;Samples;Min_cycle;Max_cycle;Signal;HPM_P1;HPM_P2
2021/06/19 00:01:34;;;;;;;3.27;0.35;;;;;;;20.48;59.47;100023.07;1761925;79;21108;-56
2021/06/19 00:04:01;;;;;;;1.60;0.35;;;;;;;20.48;59.62;100022.20;1763850;79;21152;-57
2021/06/19 00:06:27;;;;;;;1.92;0.40;;;;;;;20.48;59.68;100022.20;1763908;79;21049;-58
2021/06/19 00:08:54;;;;;;;2.47;0.40;;;;;;;20.49;59.78;100017.98;1759502;79;21351;-59
2021/06/19 00:11:20;;;;;;;1.85;0.40;;;;;;;20.50;59.81;100018.31;1789704;77;21541;-56
2021/06/19 00:13:47;;;;;;;2.25;0.40;;;;;;;20.53;59.80;100015.83;1763010;79;21104;-54
2021/06/19 00:16:14;;;;;;;1.75;0.50;;;;;;;20.54;59.81;100017.07;1791913;78;21487;-58
2021/06/19 00:18:42;;;;;;;2.92;0.40;;;;;;;20.55;59.79;100011.10;1791492;78;21339;-57
2021/06/19 00:21:09;;;;;;;2.80;0.40;;;;;;;20.54;59.83;100018.94;1792631;77;21021;-57
2021/06/19 00:23:35;;;;;;;4.55;0.30;;;;;;;20.52;59.86;100006.75;1773000;79;21734;-58
2021/06/19 00:26:01;;;;;;;1.92;0.40;;;;;;;20.50;59.91;100010.11;1769572;78;21554;-56
2021/06/19 00:28:28;;;;;;;1.32;0.40;;;;;;;20.48;60.00;100008.53;1769527;78;21041;-56
2021/06/19 00:30:54;;;;;;;1.27;0.30;;;;;;;20.46;60.09;100009.16;1771386;79;21089;-58
2021/06/19 00:33:21;;;;;;;4.72;0.40;;;;;;;20.43;60.18;100012.13;1770939;80;21096;-57
2021/06/19 00:35:47;;;;;;;1.12;0.40;;;;;;;20.39;60.27;100011.55;1769131;80;21509;-56
2021/06/19 00:38:14;;;;;;;0.98;0.40;;;;;;;20.37;60.37;100014.41;1769782;79;21112;-55
2021/06/19 00:40:40;;;;;;;2.10;0.40;;;;;;;20.35;60.49;100011.42;1770574;79;21144;-56
2021/06/19 00:43:07;;;;;;;3.35;0.50;;;;;;;20.32;60.60;100007.07;1771395;79;21072;-57
2021/06/19 00:45:37;;;;;;;2.62;0.40;;;;;;;20.30;60.74;100004.09;1769777;79;21135;-55
2021/06/19 00:48:10;;;;;;;3.00;0.40;;;;;;;20.28;60.88;100003.34;1771140;78;22126;-56
2021/06/19 00:50:37;;;;;;;0.90;0.30;;;;;;;20.26;60.94;99998.49;1774601;80;20878;-54
2021/06/19 00:53:04;;;;;;;0.82;0.30;;;;;;;20.23;61.10;100000.14;1776342;80;20945;-58
2021/06/19 00:55:30;;;;;;;2.02;0.47;;;;;;;20.24;61.23;100006.84;1777098;80;21519;-59
2021/06/19 00:57:58;;;;;;;2.47;0.30;;;;;;;20.24;61.32;100007.34;1774043;80;21021;-59
2021/06/19 01:00:24;;;;;;;0.82;0.30;;;;;;;20.23;61.34;100000.14;1772654;78;21434;-59
2021/06/19 01:02:55;;;;;;;5.05;0.50;;;;;;;20.22;61.32;100004.73;1773602;78;20899;-55
2021/06/19 01:05:21;;;;;;;3.20;0.40;;;;;;;20.22;61.40;100005.23;1769744;78;20961;-55
2021/06/19 01:07:47;;;;;;;2.10;0.40;;;;;;;20.21;61.42;100003.49;1776235;80;20910;-56
2021/06/19 01:10:14;;;;;;;1.72;0.42;;;;;;;20.19;61.51;100009.08;1774344;78;21518;-55
2021/06/19 01:12:41;;;;;;;4.42;0.30;;;;;;;20.15;61.57;100001.28;1772433;80;21787;-55
2021/06/19 01:15:10;;;;;;;2.77;0.50;;;;;;;20.12;61.67;100001.53;1775652;78;20977;-59
2021/06/19 01:17:37;;;;;;;0.68;0.30;;;;;;;20.10;61.80;100000.78;1776865;80;20961;-56
2021/06/19 01:20:11;;;;;;;0.70;0.30;;;;;;;20.07;61.94;100000.56;1776615;80;20918;-56
2021/06/19 01:22:42;;;;;;;0.53;0.30;;;;;;;20.05;62.06;99999.81;1776322;79;21021;-56
2021/06/19 01:25:11;;;;;;;1.22;0.35;;;;;;;20.03;62.14;100001.30;1777580;78;21621;-54
2021/06/19 01:27:39;;;;;;;0.50;0.37;;;;;;;20.02;62.27;99992.73;1776528;78;21084;-56
2021/06/19 01:30:07;;;;;;;1.47;0.40;;;;;;;20.02;62.33;100000.92;1774789;79;21069;-57
2021/06/19 01:32:37;;;;;;;1.10;0.40;;;;;;;20.01;62.36;99995.59;1779359;79;21041;-54
2021/06/19 01:35:05;;;;;;;3.55;0.40;;;;;;;20.02;62.40;99992.73;1777294;79;21539;-54
2021/06/19 01:37:31;;;;;;;0.85;0.40;;;;;;;20.00;62.42;99993.84;1777239;79;21186;-54
2021/06/19 01:40:11;;;;;;;1.07;0.40;;;;;;;19.99;62.42;99986.64;1774589;79;21085;-56
2021/06/19 01:42:39;;;;;;;4.05;0.50;;;;;;;19.96;62.47;99991.88;1779360;79;21481;-57
2021/06/19 01:45:14;;;;;;;1.95;0.40;;;;;;;19.94;62.55;99993.00;1772552;78;21373;-57
2021/06/19 01:47:42;;;;;;;0.95;0.40;;;;;;;19.92;62.67;99996.34;1778158;78;21052;-57
2021/06/19 01:50:10;;;;;;;1.47;0.30;;;;;;;19.89;62.70;99996.13;1777030;79;21145;-57
2021/06/19 01:52:36;;;;;;;4.15;0.33;;;;;;;19.86;62.76;99993.64;1773935;79;21052;-57
2021/06/19 01:55:04;;;;;;;1.37;0.50;;;;;;;19.85;62.83;99997.36;1775500;78;21060;-61
2021/06/19 01:57:30;;;;;;;0.70;0.40;;;;;;;19.84;62.94;99998.35;1776369;79;21100;-58
2021/06/19 02:00:16;;;;;;;2.35;0.40;;;;;;;19.85;63.02;99999.22;1777622;78;21088;-61
2021/06/19 02:02:42;;;;;;;1.82;0.33;;;;;;;19.86;63.07;99995.50;1776954;79;21199;-60
2021/06/19 02:05:10;;;;;;;0.60;0.35;;;;;;;19.87;63.07;99994.51;1778071;78;21108;-60
2021/06/19 02:07:53;;;;;;;3.62;0.40;;;;;;;19.88;63.09;99992.15;1780126;79;20986;-60
2021/06/19 02:10:24;;;;;;;0.70;0.50;;;;;;;19.89;63.06;99992.52;1776056;79;21519;-58
2021/06/19 02:12:51;;;;;;;2.35;0.40;;;;;;;19.88;63.13;99996.25;1773539;78;21070;-60
2021/06/19 02:15:19;;;;;;;0.98;0.45;;;;;;;19.87;63.16;99990.41;1775691;79;21101;-59
2021/06/19 02:17:45;;;;;;;3.60;0.40;;;;;;;19.85;63.17;99987.80;1775459;79;21761;-59
2021/06/19 02:20:13;;;;;;;2.87;0.30;;;;;;;19.84;63.22;99986.55;1775145;79;20985;-62
2021/06/19 02:22:40;;;;;;;4.00;0.50;;;;;;;19.83;63.27;99986.18;1778045;79;21057;-62
2021/06/19 02:25:10;;;;;;;2.12;0.40;;;;;;;19.84;63.31;99983.83;1779553;79;21127;-61
2021/06/19 02:27:38;;;;;;;2.10;0.40;;;;;;;19.86;63.33;99983.20;1781306;78;21526;-63
2021/06/19 02:30:06;;;;;;;1.00;0.40;;;;;;;19.87;63.28;99985.81;1775656;79;21064;-58
2021/06/19 02:32:33;;;;;;;0.70;0.30;;;;;;;19.91;63.27;99987.78;1781787;78;20882;-60
2021/06/19 02:34:59;;;;;;;0.98;0.53;;;;;;;19.94;63.18;99991.14;1785273;79;21111;-60
2021/06/19 02:37:25;;;;;;;1.40;0.30;;;;;;;19.98;63.13;100002.69;1778067;78;21406;-61
2021/06/19 02:39:52;;;;;;;0.40;0.30;;;;;;;20.00;63.07;99998.81;1774617;78;21535;-61
2021/06/19 02:42:18;;;;;;;1.82;0.30;;;;;;;20.04;62.99;100010.37;1774946;78;21533;-62
2021/06/19 02:44:45;;;;;;;0.80;0.40;;;;;;;20.05;62.96;100010.74;1774487;79;21419;-63
2021/06/19 02:47:11;;;;;;;5.40;0.37;;;;;;;20.07;63.04;100009.25;1776263;79;21751;-61
2021/06/19 02:49:38;;;;;;;2.58;0.40;;;;;;;20.07;62.92;100011.98;1778243;78;21379;-61
2021/06/19 02:52:04;;;;;;;0.42;0.30;;;;;;;20.08;62.96;100013.70;1774997;78;21131;-58
2021/06/19 02:54:30;;;;;;;3.12;0.40;;;;;;;20.09;63.07;100012.70;1774913;79;21708;-58
2021/06/19 02:56:57;;;;;;;3.87;0.30;;;;;;;20.11;63.07;100012.09;1779592;79;21048;-59
2021/06/19 02:59:25;;;;;;;3.72;0.30;;;;;;;20.13;63.13;100008.23;1779281;78;21081;-59
2021/06/19 03:01:52;;;;;;;1.10;0.40;;;;;;;20.17;63.14;100004.23;1775244;78;21073;-59
2021/06/19 03:04:20;;;;;;;3.60;0.30;;;;;;;20.22;62.99;100009.33;1773532;78;21111;-62
2021/06/19 03:06:47;;;;;;;1.60;0.40;;;;;;;20.26;62.81;100006.69;1775825;79;21478;-59
2021/06/19 03:09:13;;;;;;;1.00;0.40;;;;;;;20.29;62.75;100011.91;1774467;78;21700;-59
2021/06/19 03:11:40;;;;;;;1.07;0.40;;;;;;;20.30;62.83;100013.16;1771998;79;22263;-62
2021/06/19 03:14:06;;;;;;;3.95;0.30;;;;;;;20.30;62.80;100015.02;1776082;79;21510;-62
2021/06/19 03:16:35;;;;;;;0.50;0.30;;;;;;;20.28;62.83;100017.88;1776223;78;21375;-59
2021/06/19 03:19:01;;;;;;;2.70;0.30;;;;;;;20.25;62.92;100022.72;1773344;78;21004;-63
2021/06/19 03:21:27;;;;;;;0.70;0.30;;;;;;;20.24;62.95;100022.38;1732067;80;21287;-60
2021/06/19 03:23:54;;;;;;;6.20;0.60;;;;;;;20.21;63.10;100027.59;1737384;80;21158;-60
2021/06/19 03:26:20;;;;;;;1.15;0.40;;;;;;;20.22;63.16;100021.14;1764230;80;21515;-59
2021/06/19 03:28:46;;;;;;;0.98;0.30;;;;;;;20.27;63.19;100029.80;1763028;79;22509;-61
2021/06/19 03:31:13;;;;;;;1.22;0.40;;;;;;;20.30;63.04;100030.92;1763036;80;21061;-63
2021/06/19 03:33:39;;;;;;;1.27;0.30;;;;;;;20.33;63.06;100033.37;1768094;79;21338;-60
2021/06/19 03:36:06;;;;;;;3.42;0.40;;;;;;;20.35;63.08;100032.80;1783450;78;21485;-62
2021/06/19 03:38:32;;;;;;;0.50;0.40;;;;;;;20.38;63.06;100037.14;1779843;79;21123;-62
2021/06/19 03:40:59;;;;;;;3.52;0.30;;;;;;;20.41;63.10;100034.66;1783351;78;21089;-61
2021/06/19 03:43:25;;;;;;;2.72;0.30;;;;;;;20.44;62.94;100033.88;1779550;79;21017;-62
2021/06/19 03:45:51;;;;;;;2.02;0.30;;;;;;;20.48;62.91;100030.41;1747076;81;21074;-59
2021/06/19 03:48:18;;;;;;;0.98;0.30;;;;;;;20.50;62.93;100033.35;1772837;78;21539;-58
2021/06/19 03:50:44;;;;;;;2.60;0.30;;;;;;;20.53;62.86;100029.50;1774257;78;21446;-62
2021/06/19 03:53:11;;;;;;;5.92;0.50;;;;;;;20.57;62.79;100031.86;1778619;78;21080;-60
2021/06/19 03:55:38;;;;;;;2.80;0.40;;;;;;;20.61;62.71;100026.98;1776024;78;21033;-61
2021/06/19 03:58:04;;;;;;;1.07;0.30;;;;;;;20.67;62.86;100021.84;1783106;79;21073;-61
2021/06/19 04:00:30;;;;;;;1.20;0.35;;;;;;;20.72;62.82;100030.55;1780945;78;21077;-61
2021/06/19 04:02:57;;;;;;;1.20;0.40;;;;;;;20.80;62.75;100032.62;1784189;78;21105;-62
2021/06/19 04:05:24;;;;;;;0.40;0.25;;;;;;;20.86;62.52;100029.34;1784639;79;21111;-59
2021/06/19 04:07:50;;;;;;;0.50;0.37;;;;;;;20.95;62.24;100031.78;1782226;78;21069;-61
2021/06/19 04:10:17;;;;;;;3.15;0.40;;;;;;;21.02;61.96;100029.74;1764371;79;21072;-62
2021/06/19 04:12:44;;;;;;;2.95;0.40;;;;;;;21.07;61.81;100030.23;1765073;79;21063;-59
2021/06/19 04:15:12;;;;;;;3.70;0.40;;;;;;;21.12;61.67;100028.45;1758610;79;21531;-63
2021/06/19 04:17:38;;;;;;;2.08;0.30;;;;;;;21.16;61.53;100028.56;1787716;78;22198;-62
2021/06/19 04:20:07;;;;;;;15.28;0.80;;;;;;;21.21;61.63;100024.94;1782178;78;20909;-59
2021/06/19 04:22:34;;;;;;;2.55;0.40;;;;;;;21.24;61.34;100029.28;1782017;78;21077;-60
2021/06/19 04:25:01;;;;;;;1.65;0.30;;;;;;;21.29;61.15;100022.89;1794334;78;21065;-61
2021/06/19 04:27:27;;;;;;;0.88;0.30;;;;;;;21.28;60.35;100034.34;1754550;79;21088;-59
2021/06/19 04:29:54;;;;;;;5.90;0.70;;;;;;;21.27;60.75;100033.09;1750224;79;21116;-60
2021/06/19 04:32:20;;;;;;;1.50;0.60;;;;;;;21.26;60.74;100032.27;1795562;77;21072;-62
2021/06/19 04:34:47;;;;;;;1.52;0.30;;;;;;;21.30;60.61;100030.97;1788337;77;21112;-59
2021/06/19 04:37:14;;;;;;;1.12;0.30;;;;;;;21.38;60.67;100039.38;1792050;77;21068;-60
2021/06/19 04:39:52;;;;;;;1.65;0.30;;;;;;;21.46;60.47;100031.34;1794982;77;21068;-62
2021/06/19 04:42:14;;;;;;;3.75;0.33;;;;;;;21.53;60.36;100036.64;1794080;77;21109;-60
2021/06/19 04:47:24;;;;;;;1.22;0.30;;;;;;;21.69;60.07;100032.55;1796766;77;22310;-60
2021/06/19 04:49:50;;;;;;;2.12;0.88;;;;;;;21.78;59.90;100022.97;1795832;77;22456;-59
2021/06/19 04:52:16;;;;;;;2.40;0.37;;;;;;;21.87;59.70;100027.63;1794154;77;21553;-61
2021/06/19 04:54:43;;;;;;;0.70;0.30;;;;;;;21.96;59.27;100023.68;1792075;77;21121;-59
2021/06/19 04:57:09;;;;;;;0.40;0.30;;;;;;;22.00;58.93;100021.94;1793045;77;21040;-58
2021/06/19 04:59:36;;;;;;;1.85;0.30;;;;;;;22.04;59.12;100025.25;1719566;79;21047;-62
2021/06/19 05:02:03;;;;;;;1.77;0.40;;;;;;;22.10;58.89;100023.34;1795973;77;21042;-61
2021/06/19 05:04:29;;;;;;;2.02;0.30;;;;;;;22.14;58.88;100027.02;1798923;77;21004;-58
2021/06/19 05:06:55;;;;;;;4.92;0.40;;;;;;;22.19;58.50;100023.37;1795869;77;21138;-58
2021/06/19 05:09:22;;;;;;;2.52;0.30;;;;;;;22.21;58.44;100023.20;1793283;77;21008;-59
2021/06/19 05:11:49;;;;;;;2.70;0.40;;;;;;;22.25;58.63;100020.05;1792125;77;21036;-62
2021/06/19 05:14:15;;;;;;;1.95;0.30;;;;;;;22.25;58.14;100024.66;1794478;77;21063;-59
2021/06/19 05:16:41;;;;;;;0.72;0.30;;;;;;;22.26;58.06;100026.41;1794015;77;21040;-59
2021/06/19 05:19:08;;;;;;;4.00;1.25;;;;;;;22.30;58.25;100018.23;1788959;77;21417;-60
2021/06/19 05:21:34;;;;;;;0.30;0.30;;;;;;;22.37;58.00;100022.14;1795942;77;21064;-59
2021/06/19 05:24:01;;;;;;;1.32;0.82;;;;;;;22.43;57.98;100018.85;1792935;77;21503;-60
2021/06/19 05:26:27;;;;;;;5.30;0.42;;;;;;;22.49;57.99;100024.26;1794741;77;21055;-60
2021/06/19 05:28:53;;;;;;;4.47;0.40;;;;;;;22.56;58.37;100028.16;1794700;77;21127;-58
2021/06/19 05:31:20;;;;;;;3.58;0.37;;;;;;;22.62;57.97;100019.38;1793368;77;21208;-59
2021/06/19 05:33:46;;;;;;;2.50;0.30;;;;;;;22.67;57.49;100021.67;1793559;77;21032;-58
2021/06/19 05:38:42;;;;;;;3.95;0.40;;;;;;;22.75;57.22;100016.36;1856325;74;28719;-62
2021/06/19 05:41:08;;;;;;;2.33;0.37;;;;;;;22.73;57.38;100022.45;1826790;75;21466;-59
2021/06/19 05:43:35;;;;;;;2.98;0.40;;;;;;;22.74;57.78;100033.33;1819279;76;21135;-58
2021/06/19 05:46:02;;;;;;;29.67;1.95;;;;;;;22.75;57.40;100033.69;1761514;79;20914;-58
2021/06/19 05:48:29;;;;;;;0.93;0.35;;;;;;;22.80;57.82;100031.36;1758637;79;20865;-57
2021/06/19 05:50:55;;;;;;;1.40;0.40;;;;;;;22.85;57.28;100028.20;1756769;79;21124;-58
2021/06/19 05:53:23;;;;;;;1.25;0.40;;;;;;;22.86;57.19;100021.70;1784327;78;21092;-58
2021/06/19 05:55:49;;;;;;;3.37;0.30;;;;;;;22.90;57.36;100034.11;1788384;78;21153;-60
2021/06/19 05:58:16;;;;;;;1.98;0.35;;;;;;;22.89;57.21;100026.88;1787981;77;21004;-60
2021/06/19 06:00:42;;;;;;;4.40;0.37;;;;;;;22.93;57.18;100037.95;1784149;77;21024;-58
2021/06/19 06:03:09;;;;;;;1.22;0.40;;;;;;;22.93;57.11;100037.44;1785860;78;21785;-58
2021/06/19 06:05:36;;;;;;;4.42;0.35;;;;;;;22.97;57.12;100038.00;1752491;79;22399;-62
2021/06/19 06:08:03;;;;;;;5.53;0.40;;;;;;;22.98;57.10;100037.86;1781857;78;21141;-59
2021/06/19 06:10:31;;;;;;;0.70;0.30;;;;;;;23.05;57.02;100034.55;1781759;77;21034;-59
2021/06/19 06:12:57;;;;;;;4.45;0.40;;;;;;;23.10;56.95;100038.58;1784948;77;21069;-61
2021/06/19 06:15:25;;;;;;;10.32;0.50;;;;;;;23.15;56.80;100049.10;1770650;79;21135;-61
2021/06/19 06:17:51;;;;;;;1.17;0.50;;;;;;;23.22;56.96;100048.91;1767558;79;21076;-60
2021/06/19 06:20:17;;;;;;;2.10;0.30;;;;;;;23.29;56.90;100041.30;1767537;78;21578;-60
2021/06/19 06:22:44;;;;;;;2.62;0.30;;;;;;;23.36;57.28;100045.17;1767983;78;21088;-57
2021/06/19 06:25:11;;;;;;;7.33;0.50;;;;;;;23.39;57.03;100042.11;1771104;78;20899;-59
2021/06/19 06:27:39;;;;;;;5.42;0.80;;;;;;;23.44;56.83;100049.92;1768359;78;20966;-59
2021/06/19 06:30:06;;;;;;;5.37;0.50;;;;;;;23.50;56.63;100044.36;1774023;79;20938;-59
2021/06/19 06:32:34;;;;;;;1.90;0.70;;;;;;;23.56;56.71;100042.41;1774032;79;21094;-57
2021/06/19 06:35:00;;;;;;;2.42;1.20;;;;;;;23.63;56.61;100041.66;1771131;78;20942;-58
2021/06/19 06:37:28;;;;;;;7.20;0.57;;;;;;;23.70;56.64;100039.17;1766107;79;20929;-60
2021/06/19 06:39:55;;;;;;;6.62;0.98;;;;;;;23.74;56.16;100030.45;1767608;79;20962;-60
2021/06/19 06:42:21;;;;;;;6.00;0.60;;;;;;;23.77;56.70;100033.42;1773624;78;20946;-61
2021/06/19 06:44:47;;;;;;;1.95;0.40;;;;;;;23.81;56.40;100029.88;1768961;78;21099;-59
2021/06/19 06:47:14;;;;;;;2.05;0.40;;;;;;;23.78;55.96;100026.05;1772506;78;20980;-58
2021/06/19 06:49:40;;;;;;;2.87;0.40;;;;;;;23.74;56.40;100032.34;1770891;79;21247;-60
2021/06/19 06:52:07;;;;;;;0.75;0.40;;;;;;;23.76;56.14;100035.30;1776173;78;21539;-58
2021/06/19 06:54:39;;;;;;;2.08;0.40;;;;;;;23.80;56.07;100029.01;1771413;78;20933;-59
2021/06/19 06:57:08;;;;;;;3.33;0.93;;;;;;;23.85;56.08;100032.16;1772163;78;21392;-59
2021/06/19 06:59:35;;;;;;;0.98;0.40;;;;;;;23.93;56.22;100039.12;1768572;78;22049;-59
2021/06/19 07:02:01;;;;;;;2.70;0.40;;;;;;;24.01;55.89;100035.11;1770428;79;23006;-58
2021/06/19 07:06:58;;;;;;;6.80;0.40;;;;;;;24.21;55.73;100024.91;1867740;75;29263;-57
2021/06/19 07:09:24;;;;;;;3.33;0.40;;;;;;;24.23;55.70;100033.87;1839799;77;21017;-59
2021/06/19 07:11:51;;;;;;;4.58;0.45;;;;;;;24.28;55.54;100032.89;1841053;77;21728;-58
2021/06/19 07:14:17;;;;;;;3.95;0.40;;;;;;;24.33;55.18;100031.07;1841848;77;21388;-62
2021/06/19 07:16:45;;;;;;;5.17;0.35;;;;;;;24.31;55.05;100034.48;1841166;77;21004;-60
2021/06/19 07:19:11;;;;;;;4.87;0.40;;;;;;;24.34;55.38;100028.14;1842478;76;21107;-59
2021/06/19 07:21:38;;;;;;;4.60;0.40;;;;;;;24.39;55.48;100038.69;1841950;76;21119;-57
2021/06/19 07:24:05;;;;;;;4.05;0.40;;;;;;;24.47;55.44;100044.28;1841600;77;22030;-58
2021/06/19 07:26:32;;;;;;;2.60;0.40;;;;;;;24.53;55.02;100036.77;1843710;76;21047;-57
2021/06/19 07:28:59;;;;;;;2.15;0.40;;;;;;;24.62;55.00;100039.96;1842863;77;21383;-57
2021/06/19 07:31:26;;;;;;;4.33;0.40;;;;;;;24.71;55.03;100040.91;1841056;76;21334;-55
2021/06/19 07:33:52;;;;;;;0.70;0.40;;;;;;;24.78;55.20;100037.36;1842003;76;21346;-56
2021/06/19 07:36:19;;;;;;;5.00;0.40;;;;;;;24.86;54.46;100033.31;1840709;77;21125;-55
2021/06/19 07:38:46;;;;;;;1.67;0.50;;;;;;;24.94;54.19;100039.94;1842701;77;20991;-57
2021/06/19 07:41:12;;;;;;;3.02;0.50;;;;;;;25.00;54.62;100036.06;1843430;77;21147;-59
2021/06/19 07:43:40;;;;;;;20.60;1.22;;;;;;;25.05;54.09;100032.81;1811909;77;21033;-58
2021/06/19 07:46:07;;;;;;;24.12;1.00;;;;;;;25.09;53.96;100027.36;1813671;77;21072;-58
2021/06/19 07:48:34;;;;;;;3.05;0.50;;;;;;;25.12;53.63;100028.39;1812724;77;23020;-60
2021/06/19 07:51:01;;;;;;;2.08;0.40;;;;;;;25.18;53.75;100027.23;1808558;77;21078;-60
2021/06/19 07:53:27;;;;;;;1.57;0.40;;;;;;;25.25;53.01;100028.34;1817209;77;22214;-61
2021/06/19 07:55:53;;;;;;;2.67;0.70;;;;;;;25.30;53.05;100032.48;1815354;77;21029;-60
2021/06/19 07:58:20;;;;;;;0.65;0.50;;;;;;;25.34;53.28;100025.64;1815710;77;21030;-61
2021/06/19 08:00:46;;;;;;;0.82;0.60;;;;;;;25.41;53.43;100028.97;1809854;77;21032;-59
2021/06/19 08:03:13;;;;;;;9.50;0.88;;;;;;;25.49;53.20;100026.77;1772192;78;21650;-60
2021/06/19 08:05:39;;;;;;;1.32;0.70;;;;;;;25.50;52.90;100016.10;1771664;79;21037;-59
2021/06/19 08:08:06;;;;;;;5.08;0.40;;;;;;;25.55;53.44;100018.71;1756288;79;21053;-60
2021/06/19 08:10:32;;;;;;;3.60;0.50;;;;;;;25.61;53.33;100011.19;1751388;80;21060;-65
2021/06/19 08:12:59;;;;;;;3.45;0.50;;;;;;;25.71;53.60;100008.31;1786617;78;21109;-59
2021/06/19 08:15:26;;;;;;;2.80;0.80;;;;;;;25.80;53.05;100008.70;1756207;79;21420;-61
2021/06/19 08:17:53;;;;;;;1.60;0.50;;;;;;;25.83;52.88;100008.91;1781873;79;21047;-60
2021/06/19 08:20:19;;;;;;;3.33;0.50;;;;;;;25.83;52.89;100012.52;1781008;79;21099;-61
2021/06/19 08:22:47;;;;;;;4.30;0.55;;;;;;;25.89;52.26;100006.84;1785167;78;21037;-60
2021/06/19 08:25:13;;;;;;;12.05;0.57;;;;;;;25.96;52.06;100006.02;1750074;79;21143;-61
2021/06/19 08:30:16;;;;;;;4.95;1.00;;;;;;;26.14;52.99;99995.39;1847884;75;21918;-58
2021/06/19 08:32:42;;;;;;;2.95;0.50;;;;;;;26.19;52.18;99999.39;1811656;77;20982;-59
2021/06/19 08:35:10;;;;;;;1.57;0.50;;;;;;;26.26;52.51;99995.47;1807711;77;21447;-59
2021/06/19 08:37:37;;;;;;;1.02;0.60;;;;;;;26.32;51.74;99991.52;1804395;77;21092;-59
2021/06/19 08:40:06;;;;;;;3.20;0.70;;;;;;;26.41;51.22;99991.53;1805910;77;21037;-56
2021/06/19 08:42:33;;;;;;;3.15;0.50;;;;;;;26.45;50.87;99998.45;1798263;77;20996;-58
2021/06/19 08:44:59;;;;;;;1.37;0.50;;;;;;;26.48;50.65;99993.44;1794326;77;21423;-56
2021/06/19 08:47:26;;;;;;;3.92;0.70;;;;;;;26.55;50.22;99986.72;1801598;77;21116;-55
2021/06/19 08:49:54;;;;;;;2.47;0.82;;;;;;;26.57;50.27;99988.80;1802140;77;20942;-58
2021/06/19 08:52:20;;;;;;;0.82;0.70;;;;;;;26.58;49.50;99990.52;1795761;77;21415;-59
2021/06/19 08:54:46;;;;;;;2.08;1.00;;;;;;;26.60;49.50;99986.57;1805346;77;21124;-57
2021/06/19 08:57:15;;;;;;;3.62;0.70;;;;;;;26.65;49.88;99991.56;1808112;77;21034;-62
2021/06/19 08:59:48;;;;;;;0.80;0.70;;;;;;;26.72;49.60;99994.84;1797014;77;21542;-58
2021/06/19 09:02:15;;;;;;;3.02;0.68;;;;;;;26.73;48.93;99989.67;1793721;77;21426;-60
2021/06/19 09:05:06;;;;;;;1.57;0.60;;;;;;;26.74;49.21;99987.78;1800439;77;20913;-60
2021/06/19 09:07:46;;;;;;;5.55;0.70;;;;;;;26.79;49.41;99980.38;1756822;79;21151;-58
2021/06/19 09:10:26;;;;;;;2.20;0.50;;;;;;;26.86;49.66;99987.80;1736479;79;21025;-62
2021/06/19 09:13:09;;;;;;;10.03;0.80;;;;;;;26.92;49.82;99982.98;1741722;80;20905;-59
2021/06/19 09:15:48;;;;;;;0.75;0.70;;;;;;;26.98;49.91;99992.47;1742662;80;21323;-56
2021/06/19 09:18:22;;;;;;;4.70;0.75;;;;;;;26.99;49.63;99983.15;1747867;79;21362;-59
2021/06/19 09:20:55;;;;;;;4.92;0.70;;;;;;;26.99;49.66;99980.38;1743101;79;21570;-54
2021/06/19 09:23:43;;;;;;;0.90;0.70;;;;;;;27.01;50.13;99980.56;1743645;79;21358;-56
2021/06/19 09:26:20;;;;;;;2.85;1.10;;;;;;;27.05;49.34;99976.95;1747794;79;21119;-58
2021/06/19 09:29:06;;;;;;;29.12;3.55;;;;;;;27.10;49.53;99979.52;1744806;79;20945;-57
2021/06/19 09:31:42;;;;;;;2.67;0.70;;;;;;;27.16;49.67;99976.56;1740651;79;20953;-59
2021/06/19 09:34:24;;;;;;;2.60;0.60;;;;;;;27.21;49.01;99971.91;1739056;79;21001;-57
2021/06/19 09:36:58;;;;;;;6.22;0.60;;;;;;;27.19;48.77;99972.09;1743275;79;20902;-58
2021/06/19 09:39:28;;;;;;;4.80;0.70;;;;;;;27.13;48.60;99975.56;1744442;79;22427;-60
2021/06/19 09:42:05;;;;;;;0.90;0.60;;;;;;;27.11;49.24;99970.20;1742206;79;20937;-65
2021/06/19 09:44:42;;;;;;;1.02;0.57;;;;;;;27.18;49.66;99970.36;1743616;79;21370;-59
2021/06/19 09:47:20;;;;;;;3.77;0.70;;;;;;;27.23;48.93;99970.68;1743575;79;20921;-63
2021/06/19 09:49:48;;;;;;;4.10;0.70;;;;;;;27.27;48.11;99969.83;1739884;79;21594;-59
2021/06/19 09:52:15;;;;;;;2.45;0.60;;;;;;;27.24;48.23;99956.34;1742019;79;21067;-63
2021/06/19 09:54:43;;;;;;;4.53;0.70;;;;;;;27.23;48.45;99958.77;1739189;79;21085;-61
2021/06/19 09:57:18;;;;;;;1.20;0.60;;;;;;;27.23;48.47;99947.70;1736868;79;21069;-60
2021/06/19 09:59:44;;;;;;;3.62;0.60;;;;;;;27.26;49.07;99955.14;1740428;79;21064;-63
2021/06/19 10:02:30;;;;;;;1.45;0.60;;;;;;;27.30;48.50;99953.77;1734655;79;21096;-62
2021/06/19 10:04:57;;;;;;;5.60;0.70;;;;;;;27.36;48.24;99952.19;1737922;79;21814;-62
2021/06/19 10:07:26;;;;;;;1.72;0.50;;;;;;;27.40;47.57;99954.92;1741079;79;21740;-61
2021/06/19 10:09:56;;;;;;;0.88;0.50;;;;;;;27.42;47.56;99945.42;1738525;79;21538;-61
2021/06/19 10:12:32;;;;;;;4.47;0.60;;;;;;;27.45;48.08;99945.59;1735575;79;21075;-61
2021/06/19 10:15:11;;;;;;;3.17;0.50;;;;;;;27.50;46.92;99948.16;1737709;79;21036;-60
2021/06/19 10:17:43;;;;;;;1.40;0.50;;;;;;;27.57;46.83;99941.95;1739568;79;21769;-61
2021/06/19 10:20:13;;;;;;;6.30;0.60;;;;;;;27.63;47.00;99938.48;1738875;79;20969;-63
2021/06/19 10:22:41;;;;;;;5.65;0.50;;;;;;;27.63;46.71;99939.35;1720407;81;21570;-60
2021/06/19 10:25:10;;;;;;;2.20;0.60;;;;;;;27.67;46.80;99932.92;1741076;79;21104;-59
2021/06/19 10:27:41;;;;;;;5.53;0.50;;;;;;;27.68;46.39;99941.05;1735715;79;21428;-62
2021/06/19 10:30:10;;;;;;;5.83;0.60;;;;;;;27.67;46.60;99938.45;1739211;79;21846;-60
2021/06/19 10:32:43;;;;;;;4.67;0.70;;;;;;;27.69;47.12;99926.18;1747090;79;21498;-60
2021/06/19 10:35:18;;;;;;;1.25;0.50;;;;;;;27.78;47.41;99932.02;1747446;79;20984;-58
2021/06/19 10:37:46;;;;;;;3.52;0.45;;;;;;;27.89;46.35;99928.00;1749005;79;21048;-60
2021/06/19 11:57:30;;;;;;;1.12;0.30;;;;;;;28.38;46.60;99916.13;1793900;78;21948;-58
2021/06/19 12:00:11;;;;;;;3.80;0.50;;;;;;;28.32;45.36;99915.48;1768771;79;21032;-58
2021/06/19 12:02:37;;;;;;;2.52;0.30;;;;;;;28.24;45.90;99914.99;1766932;79;21296;-58
2021/06/19 12:05:14;;;;;;;5.75;0.55;;;;;;;28.15;45.61;99914.70;1773168;79;21020;-58
2021/06/19 12:07:40;;;;;;;4.92;0.40;;;;;;;28.05;46.08;99915.45;1771150;79;21061;-58
2021/06/19 12:10:28;;;;;;;5.67;0.40;;;;;;;27.99;45.91;99905.61;1772880;79;21069;-60
2021/06/19 12:13:03;;;;;;;0.60;0.30;;;;;;;27.94;46.07;99908.08;1771332;79;21064;-59
2021/06/19 12:15:32;;;;;;;5.05;0.40;;;;;;;27.91;46.66;99904.28;1770764;79;20907;-58
2021/06/19 12:18:00;;;;;;;2.15;0.30;;;;;;;27.91;46.30;99904.28;1774918;80;20930;-60
2021/06/19 12:20:26;;;;;;;5.67;0.40;;;;;;;27.91;46.87;99898.75;1773036;79;20942;-59
2021/06/19 12:22:53;;;;;;;2.83;0.40;;;;;;;27.93;46.68;99890.61;1776202;79;20954;-63
2021/06/19 12:25:34;;;;;;;3.52;0.60;;;;;;;27.95;46.06;99891.82;1778937;78;20965;-59
2021/06/19 12:28:01;;;;;;;2.12;0.50;;;;;;;27.90;45.60;99890.14;1773374;79;21477;-60
2021/06/19 12:30:28;;;;;;;3.72;0.40;;;;;;;27.85;45.66;99890.14;1772066;79;21550;-58
2021/06/19 12:32:54;;;;;;;3.90;0.40;;;;;;;27.83;45.03;99893.61;1773474;79;21450;-58
2021/06/19 12:35:21;;;;;;;4.42;0.50;;;;;;;27.81;44.86;99885.17;1774260;79;20910;-60
2021/06/19 12:37:56;;;;;;;2.25;0.35;;;;;;;27.75;45.05;99881.20;1775373;79;21007;-58
2021/06/19 12:40:34;;;;;;;1.92;0.30;;;;;;;27.77;45.65;99875.50;1773634;79;20934;-59
2021/06/19 12:43:07;;;;;;;5.90;1.55;;;;;;;27.77;45.25;99884.66;1775883;79;20914;-59
2021/06/19 12:45:43;;;;;;;12.47;0.90;;;;;;;27.78;45.25;99870.31;1775679;79;22105;-60
2021/06/19 12:48:37;;;;;;;2.02;0.45;;;;;;;27.84;45.24;99871.82;1776363;79;20907;-60
2021/06/19 12:51:04;;;;;;;6.10;0.40;;;;;;;27.91;44.96;99865.55;1717744;82;20969;-58
2021/06/19 12:53:34;;;;;;;6.33;0.40;;;;;;;27.98;45.21;99860.52;1739415;81;21153;-58
2021/06/19 12:56:10;;;;;;;5.53;0.35;;;;;;;28.08;44.78;99865.78;1714646;81;21081;-58
2021/06/19 12:58:39;;;;;;;4.05;0.30;;;;;;;28.14;44.52;99857.63;1733848;82;21078;-57
2021/06/19 13:01:22;;;;;;;0.93;0.20;;;;;;;28.20;44.76;99861.07;1713278;82;20961;-57
2021/06/19 13:03:53;;;;;;;4.95;0.40;;;;;;;28.27;44.43;99865.86;1708723;83;21009;-57